Time;durP1;ratioP1;P1;durP2;ratioP2;P2;SDS_P1;SDS_P2;PMS_P1;PMS_P2;Temp;Humidity;BMP_temperature;BMP_pressure;BME280_temperature;BME280_humidity;BME280_pressure;Samples;Min_cycle;Max_cycle;Signal;HPM_P1;HPM_P2
2023/09/25 00:01:43;;;;;;;;;2.00;2.00;;;;;-128.00;-1.00;-1.00;106470;1260;1002939;-37
2023/09/25 00:04:10;;;;;;;;;2.00;2.00;;;;;-128.00;-1.00;-1.00;106462;1260;1006723;-37
2023/09/25 00:06:38;;;;;;;;;2.00;2.00;;;;;-128.00;-1.00;-1.00;106442;1262;1002756;-37
2023/09/25 00:09:06;;;;;;;;;1.00;1.00;;;;;-128.00;-1.00;-1.00;106487;1260;1002658;-37
2023/09/25 00:11:33;;;;;;;;;3.00;2.00;;;;;-128.00;-1.00;-1.00;106464;1253;1006971;-38
2023/09/25 00:14:01;;;;;;;;;1.00;1.00;;;;;-128.00;-1.00;-1.00;106413;1260;1002260;-38
2023/09/25 00:16:29;;;;;;;;;2.00;2.00;;;;;-128.00;-1.00;-1.00;106421;1260;1002585;-38
2023/09/25 00:18:56;;;;;;;;;2.00;2.00;;;;;-128.00;-1.00;-1.00;106446;1262;1002634;-37
2023/09/25 00:21:23;;;;;;;;;2.00;2.00;;;;;-128.00;-1.00;-1.00;106460;1253;1003191;-37
2023/09/25 00:23:51;;;;;;;;;1.33;1.33;;;;;-128.00;-1.00;-1.00;106463;1260;1003107;-37
2023/09/25 00:26:18;;;;;;;;;1.00;1.00;;;;;-128.00;-1.00;-1.00;106443;1260;1002207;-37
2023/09/25 00:28:45;;;;;;;;;1.00;1.00;;;;;-128.00;-1.00;-1.00;106460;1267;1003182;-37
2023/09/25 00:31:13;;;;;;;;;1.00;1.00;;;;;-128.00;-1.00;-1.00;106457;1260;1002887;-38
2023/09/25 00:33:40;;;;;;;;;2.50;2.50;;;;;-128.00;-1.00;-1.00;106427;1254;1004799;-38
2023/09/25 00:36:07;;;;;;;;;3.00;2.00;;;;;-128.00;-1.00;-1.00;106450;1260;1002635;-38
2023/09/25 00:38:35;;;;;;;;;1.33;1.33;;;;;-128.00;-1.00;-1.00;106463;1260;1002747;-37
2023/09/25 00:41:02;;;;;;;;;2.00;2.00;;;;;-128.00;-1.00;-1.00;106436;1260;1002457;-37
2023/09/25 00:43:29;;;;;;;;;3.00;3.00;;;;;-128.00;-1.00;-1.00;106445;1260;1002441;-37
2023/09/25 00:45:57;;;;;;;;;2.00;2.00;;;;;-128.00;-1.00;-1.00;106450;1268;1003345;-38
2023/09/25 00:48:24;;;;;;;;;2.00;1.50;;;;;-128.00;-1.00;-1.00;106436;1260;1002603;-37
2023/09/25 00:50:51;;;;;;;;;1.67;1.00;;;;;-128.00;-1.00;-1.00;106427;1261;1002134;-37
2023/09/25 00:53:19;;;;;;;;;1.00;1.00;;;;;-128.00;-1.00;-1.00;106419;1260;1002857;-37
2023/09/25 00:55:46;;;;;;;;;2.00;2.00;;;;;-128.00;-1.00;-1.00;106452;1260;1002973;-36
2023/09/25 00:58:13;;;;;;;;;1.00;1.00;;;;;-128.00;-1.00;-1.00;106429;1260;1003123;-36
2023/09/25 01:00:40;;;;;;;;;1.00;1.00;;;;;-128.00;-1.00;-1.00;106421;1253;1002417;-37
2023/09/25 01:03:08;;;;;;;;;2.00;2.00;;;;;-128.00;-1.00;-1.00;106432;1260;1002880;-37
2023/09/25 01:05:35;;;;;;;;;2.00;2.00;;;;;-128.00;-1.00;-1.00;106485;1252;1005653;-37
2023/09/25 01:08:03;;;;;;;;;2.00;2.00;;;;;-128.00;-1.00;-1.00;106465;1260;1002715;-37
2023/09/25 01:10:30;;;;;;;;;2.00;2.00;;;;;-128.00;-1.00;-1.00;106444;1260;1002736;-37
2023/09/25 01:12:59;;;;;;;;;2.00;2.00;;;;;-128.00;-1.00;-1.00;106465;1260;1002708;-37
2023/09/25 01:15:27;;;;;;;;;1.00;1.00;;;;;-128.00;-1.00;-1.00;106461;1260;1007019;-36
2023/09/25 01:17:54;;;;;;;;;1.00;1.00;;;;;-128.00;-1.00;-1.00;106478;1267;1002643;-37
2023/09/25 01:20:22;;;;;;;;;2.00;2.00;;;;;-128.00;-1.00;-1.00;106466;1260;1002922;-35
2023/09/25 01:22:50;;;;;;;;;2.00;1.00;;;;;-128.00;-1.00;-1.00;106471;1259;1006023;-37
2023/09/25 01:25:17;;;;;;;;;2.00;2.00;;;;;-128.00;-1.00;-1.00;106464;1260;1003102;-38
2023/09/25 01:27:44;;;;;;;;;1.00;1.00;;;;;-128.00;-1.00;-1.00;106444;1260;1003072;-38
2023/09/25 01:30:13;;;;;;;;;2.00;2.00;;;;;-128.00;-1.00;-1.00;106479;1251;1003322;-37
2023/09/25 01:32:42;;;;;;;;;1.50;1.50;;;;;-128.00;-1.00;-1.00;106492;1259;1006674;-37
2023/09/25 01:35:11;;;;;;;;;2.00;2.00;;;;;-128.00;-1.00;-1.00;106494;1259;1006290;-37
2023/09/25 01:37:39;;;;;;;;;1.00;1.00;;;;;-128.00;-1.00;-1.00;106451;1259;1007010;-38
2023/09/25 01:40:08;;;;;;;;;2.00;2.00;;;;;-128.00;-1.00;-1.00;106516;1251;1003768;-37
2023/09/25 01:42:36;;;;;;;;;2.00;2.00;;;;;-128.00;-1.00;-1.00;106491;1259;1006329;-38
2023/09/25 01:45:03;;;;;;;;;1.00;1.00;;;;;-128.00;-1.00;-1.00;106483;1259;1002740;-37
2023/09/25 01:47:30;;;;;;;;;2.00;2.00;;;;;-128.00;-1.00;-1.00;106485;1259;1002821;-39
2023/09/25 01:49:58;;;;;;;;;2.00;2.00;;;;;-128.00;-1.00;-1.00;106518;1259;1003064;-38
2023/09/25 01:52:27;;;;;;;;;1.00;1.00;;;;;-128.00;-1.00;-1.00;106497;1259;1004240;-38
2023/09/25 01:54:55;;;;;;;;;2.00;2.00;;;;;-128.00;-1.00;-1.00;106489;1259;1007361;-38
2023/09/25 01:57:22;;;;;;;;;2.00;2.00;;;;;-128.00;-1.00;-1.00;106502;1251;1002836;-37
2023/09/25 01:59:49;;;;;;;;;1.00;1.00;;;;;-128.00;-1.00;-1.00;106481;1260;1002795;-37
2023/09/25 02:02:16;;;;;;;;;2.00;2.00;;;;;-128.00;-1.00;-1.00;106484;1251;1002711;-37
2023/09/25 02:04:44;;;;;;;;;2.00;2.00;;;;;-128.00;-1.00;-1.00;106368;1260;1002354;-37
2023/09/25 02:07:11;;;;;;;;;1.25;1.25;;;;;-128.00;-1.00;-1.00;106502;1258;1003384;-37
2023/09/25 02:09:38;;;;;;;;;2.00;2.00;;;;;-128.00;-1.00;-1.00;106474;1260;1002180;-37
2023/09/25 02:12:06;;;;;;;;;2.00;2.00;;;;;-128.00;-1.00;-1.00;106500;1259;1002768;-37
2023/09/25 02:14:33;;;;;;;;;1.00;1.00;;;;;-128.00;-1.00;-1.00;106471;1259;1002532;-38
2023/09/25 02:17:01;;;;;;;;;2.00;1.33;;;;;-128.00;-1.00;-1.00;106476;1258;1002474;-38
2023/09/25 02:19:28;;;;;;;;;1.00;1.00;;;;;-128.00;-1.00;-1.00;106418;1260;1002762;-37
2023/09/25 02:21:55;;;;;;;;;2.00;2.00;;;;;-128.00;-1.00;-1.00;106459;1260;1004369;-37
2023/09/25 02:24:23;;;;;;;;;1.00;1.00;;;;;-128.00;-1.00;-1.00;106482;1260;1002776;-37
2023/09/25 02:26:50;;;;;;;;;3.00;2.00;;;;;-128.00;-1.00;-1.00;106496;1259;1004555;-37
2023/09/25 02:29:20;;;;;;;;;2.00;2.00;;;;;-128.00;-1.00;-1.00;106494;1266;1004322;-36
2023/09/25 02:31:47;;;;;;;;;2.25;2.25;;;;;-128.00;-1.00;-1.00;106481;1259;1007232;-37
2023/09/25 02:34:16;;;;;;;;;2.00;2.00;;;;;-128.00;-1.00;-1.00;106453;1258;1003197;-37
2023/09/25 02:36:43;;;;;;;;;2.00;2.00;;;;;-128.00;-1.00;-1.00;106474;1260;1006359;-37
2023/09/25 02:39:11;;;;;;;;;2.00;2.00;;;;;-128.00;-1.00;-1.00;106475;1260;1002668;-37
2023/09/25 02:41:39;;;;;;;;;3.00;2.00;;;;;-128.00;-1.00;-1.00;106453;1260;1003249;-37
2023/09/25 02:44:06;;;;;;;;;1.00;1.00;;;;;-128.00;-1.00;-1.00;106449;1260;1002902;-37
2023/09/25 02:46:33;;;;;;;;;1.25;1.00;;;;;-128.00;-1.00;-1.00;106485;1260;1002641;-38
2023/09/25 02:49:01;;;;;;;;;1.00;1.00;;;;;-128.00;-1.00;-1.00;106460;1267;1003148;-37
2023/09/25 02:51:28;;;;;;;;;2.00;2.00;;;;;-128.00;-1.00;-1.00;106458;1260;1003447;-37
2023/09/25 02:53:55;;;;;;;;;2.00;2.00;;;;;-128.00;-1.00;-1.00;106459;1260;1002794;-37
2023/09/25 02:56:22;;;;;;;;;2.00;2.00;;;;;-128.00;-1.00;-1.00;106464;1260;1002861;-37
2023/09/25 02:58:50;;;;;;;;;1.00;1.00;;;;;-128.00;-1.00;-1.00;106459;1260;1002909;-37
2023/09/25 03:01:17;;;;;;;;;1.50;1.50;;;;;-128.00;-1.00;-1.00;106466;1260;1003004;-38
2023/09/25 03:03:45;;;;;;;;;1.50;1.50;;;;;-128.00;-1.00;-1.00;106459;1260;1002737;-37
2023/09/25 03:06:12;;;;;;;;;2.00;2.00;;;;;-128.00;-1.00;-1.00;106440;1261;1003269;-37
2023/09/25 03:08:39;;;;;;;;;2.00;2.00;;;;;-128.00;-1.00;-1.00;106470;1260;1002850;-37
2023/09/25 03:11:06;;;;;;;;;1.00;1.00;;;;;-128.00;-1.00;-1.00;106477;1260;1002714;-38
2023/09/25 03:13:34;;;;;;;;;2.00;2.00;;;;;-128.00;-1.00;-1.00;106448;1260;1002572;-38
2023/09/25 03:16:01;;;;;;;;;1.00;1.00;;;;;-128.00;-1.00;-1.00;106498;1259;1002624;-37
2023/09/25 03:18:28;;;;;;;;;2.00;2.00;;;;;-128.00;-1.00;-1.00;106473;1258;1002689;-37
2023/09/25 03:20:56;;;;;;;;;2.00;1.00;;;;;-128.00;-1.00;-1.00;106488;1259;1002883;-38
2023/09/25 03:23:23;;;;;;;;;2.00;2.00;;;;;-128.00;-1.00;-1.00;106508;1258;1002568;-37
2023/09/25 03:25:50;;;;;;;;;1.00;1.00;;;;;-128.00;-1.00;-1.00;106493;1250;1002783;-37
2023/09/25 03:28:18;;;;;;;;;2.00;2.00;;;;;-128.00;-1.00;-1.00;106487;1260;1003168;-37
2023/09/25 03:30:48;;;;;;;;;1.50;1.50;;;;;-128.00;-1.00;-1.00;106509;1259;1003081;-35
2023/09/25 03:33:16;;;;;;;;;1.00;1.00;;;;;-128.00;-1.00;-1.00;106499;1260;1006148;-39
2023/09/25 03:35:43;;;;;;;;;1.50;1.50;;;;;-128.00;-1.00;-1.00;106494;1259;1002900;-36
2023/09/25 03:38:10;;;;;;;;;2.33;2.00;;;;;-128.00;-1.00;-1.00;106468;1259;1005905;-39
2023/09/25 03:40:38;;;;;;;;;1.00;1.00;;;;;-128.00;-1.00;-1.00;106509;1251;1003018;-37
2023/09/25 03:43:05;;;;;;;;;1.00;1.00;;;;;-128.00;-1.00;-1.00;106482;1260;1002647;-38
2023/09/25 03:45:32;;;;;;;;;1.75;1.50;;;;;-128.00;-1.00;-1.00;106484;1260;1003954;-38
2023/09/25 03:47:59;;;;;;;;;2.00;1.00;;;;;-128.00;-1.00;-1.00;106479;1260;1002557;-37
2023/09/25 03:50:27;;;;;;;;;1.00;1.00;;;;;-128.00;-1.00;-1.00;106494;1260;1002707;-36
2023/09/25 03:52:57;;;;;;;;;2.00;2.00;;;;;-128.00;-1.00;-1.00;106461;1259;1002840;-37
2023/09/25 03:55:25;;;;;;;;;1.00;1.00;;;;;-128.00;-1.00;-1.00;106419;1260;1005331;-38
2023/09/25 03:57:52;;;;;;;;;2.00;2.00;;;;;-128.00;-1.00;-1.00;106512;1260;1005838;-36
2023/09/25 04:00:19;;;;;;;;;1.00;1.00;;;;;-128.00;-1.00;-1.00;106516;1259;1002119;-37
2023/09/25 04:02:47;;;;;;;;;1.00;1.00;;;;;-128.00;-1.00;-1.00;106542;1260;1002476;-36
2023/09/25 04:05:14;;;;;;;;;2.00;2.00;;;;;-128.00;-1.00;-1.00;106495;1251;1003031;-36
2023/09/25 04:07:41;;;;;;;;;1.00;1.00;;;;;-128.00;-1.00;-1.00;106534;1250;1002525;-36
2023/09/25 04:10:09;;;;;;;;;2.00;2.00;;;;;-128.00;-1.00;-1.00;106532;1258;1002384;-36
2023/09/25 04:12:36;;;;;;;;;1.00;1.00;;;;;-128.00;-1.00;-1.00;106539;1260;1002627;-38
2023/09/25 04:15:04;;;;;;;;;2.50;2.50;;;;;-128.00;-1.00;-1.00;106486;1260;1002491;-39
2023/09/25 04:17:33;;;;;;;;;2.00;2.00;;;;;-128.00;-1.00;-1.00;106530;1259;1006080;-38
2023/09/25 04:20:01;;;;;;;;;1.00;1.00;;;;;-128.00;-1.00;-1.00;106510;1259;1006464;-37
2023/09/25 04:22:28;;;;;;;;;2.00;2.00;;;;;-128.00;-1.00;-1.00;106499;1259;1002929;-37
2023/09/25 04:24:55;;;;;;;;;2.00;2.00;;;;;-128.00;-1.00;-1.00;106478;1259;1002828;-38
2023/09/25 04:27:24;;;;;;;;;1.75;1.75;;;;;-128.00;-1.00;-1.00;106487;1250;1003285;-37
2023/09/25 04:29:51;;;;;;;;;1.00;1.00;;;;;-128.00;-1.00;-1.00;106492;1259;1007942;-37
2023/09/25 04:32:18;;;;;;;;;2.00;2.00;;;;;-128.00;-1.00;-1.00;106486;1260;1002373;-38
2023/09/25 04:34:47;;;;;;;;;1.25;1.25;;;;;-128.00;-1.00;-1.00;106525;1260;1002733;-37
2023/09/25 04:37:16;;;;;;;;;2.00;2.00;;;;;-128.00;-1.00;-1.00;106506;1259;1006818;-37
2023/09/25 04:39:43;;;;;;;;;2.00;2.00;;;;;-128.00;-1.00;-1.00;106507;1250;1006797;-38
2023/09/25 04:42:11;;;;;;;;;1.00;1.00;;;;;-128.00;-1.00;-1.00;106489;1260;1002540;-38
2023/09/25 04:44:40;;;;;;;;;2.00;2.00;;;;;-128.00;-1.00;-1.00;106370;1259;1002739;-37
2023/09/25 04:47:07;;;;;;;;;2.00;2.00;;;;;-128.00;-1.00;-1.00;106480;1258;1006999;-37
2023/09/25 04:49:35;;;;;;;;;3.00;3.00;;;;;-128.00;-1.00;-1.00;106493;1259;1003032;-37
2023/09/25 04:52:02;;;;;;;;;1.67;1.67;;;;;-128.00;-1.00;-1.00;106495;1260;1002652;-37
2023/09/25 04:54:31;;;;;;;;;3.00;2.67;;;;;-128.00;-1.00;-1.00;106486;1250;1003215;-38
2023/09/25 04:56:58;;;;;;;;;2.00;2.00;;;;;-128.00;-1.00;-1.00;106490;1259;1005827;-37
2023/09/25 04:59:25;;;;;;;;;2.00;2.00;;;;;-128.00;-1.00;-1.00;106452;1259;1002648;-38
2023/09/25 05:01:53;;;;;;;;;2.00;2.00;;;;;-128.00;-1.00;-1.00;106481;1259;1002337;-37
2023/09/25 05:04:20;;;;;;;;;2.67;2.67;;;;;-128.00;-1.00;-1.00;106486;1250;1002162;-37
2023/09/25 05:06:47;;;;;;;;;2.00;2.00;;;;;-128.00;-1.00;-1.00;106515;1260;1003010;-36
2023/09/25 05:09:15;;;;;;;;;2.33;2.00;;;;;-128.00;-1.00;-1.00;106475;1260;1002621;-36
2023/09/25 05:11:42;;;;;;;;;2.00;2.00;;;;;-128.00;-1.00;-1.00;106495;1260;1002642;-37
2023/09/25 05:14:09;;;;;;;;;3.50;3.50;;;;;-128.00;-1.00;-1.00;106466;1261;1003034;-37
2023/09/25 05:16:37;;;;;;;;;68.00;51.00;;;;;-128.00;-1.00;-1.00;106482;1259;1002729;-39
2023/09/25 05:19:04;;;;;;;;;221.00;157.50;;;;;-128.00;-1.00;-1.00;106455;1258;1002656;-37
2023/09/25 05:21:31;;;;;;;;;190.50;139.00;;;;;-128.00;-1.00;-1.00;106375;1250;1002452;-38
2023/09/25 05:23:59;;;;;;;;;126.50;93.50;;;;;-128.00;-1.00;-1.00;106445;1259;1002810;-35
2023/09/25 05:26:26;;;;;;;;;110.00;82.00;;;;;-128.00;-1.00;-1.00;106529;1258;1002862;-38
2023/09/25 05:28:53;;;;;;;;;90.25;64.75;;;;;-128.00;-1.00;-1.00;106527;1260;1003333;-38
2023/09/25 05:31:21;;;;;;;;;63.00;46.00;;;;;-128.00;-1.00;-1.00;106510;1259;1002786;-38
2023/09/25 05:33:48;;;;;;;;;40.00;32.50;;;;;-128.00;-1.00;-1.00;106508;1260;1002616;-38
2023/09/25 05:36:15;;;;;;;;;32.50;24.50;;;;;-128.00;-1.00;-1.00;106497;1250;1002958;-38
2023/09/25 05:38:42;;;;;;;;;29.50;26.00;;;;;-128.00;-1.00;-1.00;106458;1259;1003230;-39
2023/09/25 05:41:10;;;;;;;;;17.50;16.00;;;;;-128.00;-1.00;-1.00;106492;1260;1003025;-38
2023/09/25 05:43:38;;;;;;;;;15.33;14.00;;;;;-128.00;-1.00;-1.00;106479;1259;1002590;-38
2023/09/25 05:46:06;;;;;;;;;12.00;10.00;;;;;-128.00;-1.00;-1.00;106397;1250;1006365;-38
2023/09/25 05:48:33;;;;;;;;;13.00;12.00;;;;;-128.00;-1.00;-1.00;106489;1266;1002514;-38
2023/09/25 05:51:00;;;;;;;;;10.00;10.00;;;;;-128.00;-1.00;-1.00;106363;1259;1002753;-37
2023/09/25 05:53:27;;;;;;;;;8.00;8.00;;;;;-128.00;-1.00;-1.00;106457;1259;1002694;-37
2023/09/25 05:55:55;;;;;;;;;8.00;8.00;;;;;-128.00;-1.00;-1.00;106479;1260;1002704;-36
2023/09/25 05:58:23;;;;;;;;;7.50;7.50;;;;;-128.00;-1.00;-1.00;106491;1259;1002867;-37
2023/09/25 06:00:50;;;;;;;;;6.00;6.00;;;;;-128.00;-1.00;-1.00;106492;1260;1002708;-37
2023/09/25 06:03:17;;;;;;;;;6.00;6.00;;;;;-128.00;-1.00;-1.00;106479;1260;1003359;-38
2023/09/25 06:05:45;;;;;;;;;9.00;8.00;;;;;-128.00;-1.00;-1.00;106476;1266;1002600;-38
2023/09/25 06:08:12;;;;;;;;;9.50;8.00;;;;;-128.00;-1.00;-1.00;106476;1259;1002735;-39
2023/09/25 06:10:40;;;;;;;;;6.00;6.00;;;;;-128.00;-1.00;-1.00;106455;1260;1003510;-39
2023/09/25 06:13:08;;;;;;;;;6.00;6.00;;;;;-128.00;-1.00;-1.00;106490;1259;1008100;-38
2023/09/25 06:15:37;;;;;;;;;6.00;6.00;;;;;-128.00;-1.00;-1.00;106507;1259;1003121;-39
2023/09/25 06:18:09;;;;;;;;;5.00;5.00;;;;;-128.00;-1.00;-1.00;106487;1259;1006015;-38
2023/09/25 06:20:36;;;;;;;;;8.00;8.00;;;;;-128.00;-1.00;-1.00;106493;1259;1006625;-39
2023/09/25 06:23:03;;;;;;;;;10.33;6.67;;;;;-128.00;-1.00;-1.00;106502;1259;1003138;-38
2023/09/25 06:25:31;;;;;;;;;8.00;6.00;;;;;-128.00;-1.00;-1.00;106480;1260;1002526;-39
2023/09/25 06:27:58;;;;;;;;;6.00;5.75;;;;;-128.00;-1.00;-1.00;106473;1260;1003180;-38
2023/09/25 06:30:27;;;;;;;;;8.00;5.00;;;;;-128.00;-1.00;-1.00;106489;1259;1002088;-39
2023/09/25 06:32:55;;;;;;;;;6.00;6.00;;;;;-128.00;-1.00;-1.00;106408;1259;1006426;-36
2023/09/25 06:35:23;;;;;;;;;5.00;5.00;;;;;-128.00;-1.00;-1.00;106494;1260;1002533;-38
2023/09/25 06:37:51;;;;;;;;;5.00;5.00;;;;;-128.00;-1.00;-1.00;106714;1255;1006469;-37
2023/09/25 06:40:19;;;;;;;;;5.00;5.00;;;;;-128.00;-1.00;-1.00;106678;1247;1002490;-38
2023/09/25 06:42:46;;;;;;;;;4.00;4.00;;;;;-128.00;-1.00;-1.00;106668;1256;1007394;-39
2023/09/25 06:45:13;;;;;;;;;5.00;5.00;;;;;-128.00;-1.00;-1.00;106654;1257;1003605;-38
2023/09/25 06:47:42;;;;;;;;;6.00;6.00;;;;;-128.00;-1.00;-1.00;106730;1263;1002343;-37
2023/09/25 06:50:10;;;;;;;;;5.00;5.00;;;;;-128.00;-1.00;-1.00;106756;1257;1007094;-35
2023/09/25 06:52:37;;;;;;;;;5.00;5.00;;;;;-128.00;-1.00;-1.00;106757;1256;1005920;-37
2023/09/25 06:55:05;;;;;;;;;5.50;5.00;;;;;-128.00;-1.00;-1.00;106714;1255;1002754;-37
2023/09/25 06:57:32;;;;;;;;;4.00;4.00;;;;;-128.00;-1.00;-1.00;106741;1247;1002971;-37
2023/09/25 06:59:59;;;;;;;;;3.00;3.00;;;;;-128.00;-1.00;-1.00;106749;1247;1003566;-37
2023/09/25 07:02:27;;;;;;;;;6.00;5.00;;;;;-128.00;-1.00;-1.00;106726;1257;1002216;-37
2023/09/25 07:04:54;;;;;;;;;5.67;5.00;;;;;-128.00;-1.00;-1.00;106732;1255;1002389;-37
2023/09/25 07:07:21;;;;;;;;;4.00;4.00;;;;;-128.00;-1.00;-1.00;106733;1256;1002556;-37
2023/09/25 07:09:49;;;;;;;;;5.00;5.00;;;;;-128.00;-1.00;-1.00;106718;1247;1002482;-37
2023/09/25 07:12:18;;;;;;;;;5.00;5.00;;;;;-128.00;-1.00;-1.00;106740;1256;1002714;-37
2023/09/25 07:14:48;;;;;;;;;4.67;4.67;;;;;-128.00;-1.00;-1.00;106739;1247;1006351;-37
2023/09/25 07:17:16;;;;;;;;;4.00;4.00;;;;;-128.00;-1.00;-1.00;106769;1247;1006768;-37
2023/09/25 07:19:43;;;;;;;;;6.00;5.00;;;;;-128.00;-1.00;-1.00;106731;1257;1003018;-38
2023/09/25 07:22:10;;;;;;;;;7.00;6.00;;;;;-128.00;-1.00;-1.00;106724;1257;1002974;-48
2023/09/25 07:24:38;;;;;;;;;8.00;5.00;;;;;-128.00;-1.00;-1.00;106755;1257;1002481;-38
2023/09/25 07:27:05;;;;;;;;;4.50;4.50;;;;;-128.00;-1.00;-1.00;106727;1255;1002404;-37
2023/09/25 07:29:33;;;;;;;;;5.00;5.00;;;;;-128.00;-1.00;-1.00;106729;1256;1002174;-37
2023/09/25 07:32:00;;;;;;;;;4.50;4.50;;;;;-128.00;-1.00;-1.00;106728;1256;1002511;-38
2023/09/25 07:34:29;;;;;;;;;4.00;4.00;;;;;-128.00;-1.00;-1.00;106648;1263;1002319;-44
2023/09/25 07:36:56;;;;;;;;;5.50;4.00;;;;;-128.00;-1.00;-1.00;106697;1255;1006122;-39
2023/09/25 07:39:24;;;;;;;;;5.00;5.00;;;;;-128.00;-1.00;-1.00;106668;1262;1002513;-38
2023/09/25 07:41:51;;;;;;;;;5.00;4.00;;;;;-128.00;-1.00;-1.00;106714;1256;1002868;-38
2023/09/25 07:44:25;;;;;;;;;4.00;4.00;;;;;-128.00;-1.00;-1.00;106714;1256;1005561;-39
2023/09/25 07:46:53;;;;;;;;;4.00;4.00;;;;;-128.00;-1.00;-1.00;106718;1257;1006431;-38
2023/09/25 07:49:20;;;;;;;;;5.00;4.00;;;;;-128.00;-1.00;-1.00;106706;1256;1002877;-38
2023/09/25 07:51:48;;;;;;;;;5.00;5.00;;;;;-128.00;-1.00;-1.00;106733;1247;1002156;-38
2023/09/25 07:54:16;;;;;;;;;5.00;5.00;;;;;-128.00;-1.00;-1.00;106752;1256;1002831;-38
2023/09/25 07:56:43;;;;;;;;;4.67;4.00;;;;;-128.00;-1.00;-1.00;106727;1257;1002587;-38
2023/09/25 07:59:10;;;;;;;;;4.00;4.00;;;;;-128.00;-1.00;-1.00;106735;1256;1002597;-37
2023/09/25 08:01:39;;;;;;;;;4.00;4.00;;;;;-128.00;-1.00;-1.00;106707;1256;1002997;-37
2023/09/25 08:04:06;;;;;;;;;4.00;4.00;;;;;-128.00;-1.00;-1.00;106685;1255;1006837;-37
2023/09/25 08:06:34;;;;;;;;;4.00;4.00;;;;;-128.00;-1.00;-1.00;106753;1256;1002610;-37
2023/09/25 08:09:01;;;;;;;;;6.00;5.50;;;;;-128.00;-1.00;-1.00;106684;1255;1003037;-38
2023/09/25 08:11:29;;;;;;;;;4.00;4.00;;;;;-128.00;-1.00;-1.00;106732;1256;1002957;-36
2023/09/25 08:13:56;;;;;;;;;5.00;5.00;;;;;-128.00;-1.00;-1.00;106724;1256;1002644;-37
2023/09/25 08:16:23;;;;;;;;;2.50;2.50;;;;;-128.00;-1.00;-1.00;106736;1262;1004906;-37
2023/09/25 08:18:51;;;;;;;;;4.00;4.00;;;;;-128.00;-1.00;-1.00;106729;1255;1002732;-37
2023/09/25 08:21:19;;;;;;;;;4.00;4.00;;;;;-128.00;-1.00;-1.00;106723;1256;1002493;-36
2023/09/25 08:23:47;;;;;;;;;4.00;4.00;;;;;-128.00;-1.00;-1.00;106739;1257;1006255;-36
2023/09/25 08:26:16;;;;;;;;;5.50;4.50;;;;;-128.00;-1.00;-1.00;106715;1262;1002359;-36
2023/09/25 08:28:43;;;;;;;;;4.00;4.00;;;;;-128.00;-1.00;-1.00;106756;1257;1006226;-38
2023/09/25 08:31:11;;;;;;;;;5.00;4.00;;;;;-128.00;-1.00;-1.00;106675;1254;1002651;-37
2023/09/25 08:33:39;;;;;;;;;4.75;4.75;;;;;-128.00;-1.00;-1.00;106717;1256;1002855;-36
2023/09/25 08:36:07;;;;;;;;;2.50;2.50;;;;;-128.00;-1.00;-1.00;106752;1257;1005667;-38
2023/09/25 08:38:34;;;;;;;;;2.00;2.00;;;;;-128.00;-1.00;-1.00;106685;1256;1002860;-37
2023/09/25 08:41:02;;;;;;;;;4.75;4.00;;;;;-128.00;-1.00;-1.00;106674;1256;1003417;-37
2023/09/25 08:43:29;;;;;;;;;5.33;5.33;;;;;-128.00;-1.00;-1.00;106686;1247;1003703;-38
2023/09/25 08:45:57;;;;;;;;;4.00;4.00;;;;;-128.00;-1.00;-1.00;106712;1255;1002637;-37
2023/09/25 08:48:25;;;;;;;;;5.00;5.00;;;;;-128.00;-1.00;-1.00;106613;1257;1002638;-38
2023/09/25 08:50:52;;;;;;;;;6.00;6.00;;;;;-128.00;-1.00;-1.00;106548;1256;1003295;-37
2023/09/25 08:53:20;;;;;;;;;5.00;4.00;;;;;-128.00;-1.00;-1.00;106644;1255;1003304;-37
2023/09/25 08:55:47;;;;;;;;;5.00;5.00;;;;;-128.00;-1.00;-1.00;106617;1256;1005137;-39
2023/09/25 08:58:14;;;;;;;;;5.00;5.00;;;;;-128.00;-1.00;-1.00;106731;1247;1002679;-37
2023/09/25 09:00:42;;;;;;;;;5.00;5.00;;;;;-128.00;-1.00;-1.00;106688;1263;1004397;-38
2023/09/25 09:03:09;;;;;;;;;3.00;2.33;;;;;-128.00;-1.00;-1.00;106648;1256;1002873;-38
2023/09/25 09:05:37;;;;;;;;;3.00;3.00;;;;;-128.00;-1.00;-1.00;106659;1257;1002467;-38
2023/09/25 09:08:05;;;;;;;;;5.00;5.00;;;;;-128.00;-1.00;-1.00;106667;1257;1004437;-38
2023/09/25 09:10:32;;;;;;;;;5.00;5.00;;;;;-128.00;-1.00;-1.00;106670;1256;1007260;-38
2023/09/25 09:13:01;;;;;;;;;5.00;5.00;;;;;-128.00;-1.00;-1.00;106655;1249;1003216;-37
2023/09/25 09:15:29;;;;;;;;;3.00;3.00;;;;;-128.00;-1.00;-1.00;106723;1256;1006045;-37
2023/09/25 09:17:56;;;;;;;;;4.50;4.50;;;;;-128.00;-1.00;-1.00;106721;1256;1002796;-38
2023/09/25 09:20:23;;;;;;;;;4.00;4.00;;;;;-128.00;-1.00;-1.00;106642;1256;1002597;-37
2023/09/25 09:22:51;;;;;;;;;2.33;2.33;;;;;-128.00;-1.00;-1.00;106660;1263;1002474;-37
2023/09/25 09:25:19;;;;;;;;;3.00;3.00;;;;;-128.00;-1.00;-1.00;106674;1249;1002599;-38
2023/09/25 09:27:46;;;;;;;;;5.00;5.00;;;;;-128.00;-1.00;-1.00;106664;1255;1002849;-38
2023/09/25 09:30:14;;;;;;;;;3.00;2.00;;;;;-128.00;-1.00;-1.00;106680;1257;1002384;-38
2023/09/25 09:32:42;;;;;;;;;4.00;4.00;;;;;-128.00;-1.00;-1.00;106677;1257;1006802;-38
2023/09/25 09:35:13;;;;;;;;;5.00;5.00;;;;;-128.00;-1.00;-1.00;106673;1255;1002933;-37
2023/09/25 09:37:41;;;;;;;;;2.33;2.33;;;;;-128.00;-1.00;-1.00;106734;1247;1005901;-37
2023/09/25 09:40:11;;;;;;;;;2.00;2.00;;;;;-128.00;-1.00;-1.00;106679;1255;1003027;-37
2023/09/25 09:42:38;;;;;;;;;4.00;4.00;;;;;-128.00;-1.00;-1.00;106651;1256;1005639;-38
2023/09/25 09:45:08;;;;;;;;;5.00;4.00;;;;;-128.00;-1.00;-1.00;106670;1256;1003713;-38
2023/09/25 09:47:35;;;;;;;;;4.00;4.00;;;;;-128.00;-1.00;-1.00;106713;1256;1006865;-37
2023/09/25 09:50:03;;;;;;;;;3.75;3.75;;;;;-128.00;-1.00;-1.00;106712;1263;1003250;-39
2023/09/25 09:52:30;;;;;;;;;3.00;3.00;;;;;-128.00;-1.00;-1.00;106665;1257;1002395;-38
2023/09/25 09:54:58;;;;;;;;;2.67;2.67;;;;;-128.00;-1.00;-1.00;106676;1263;1002910;-38
2023/09/25 09:57:25;;;;;;;;;4.67;4.00;;;;;-128.00;-1.00;-1.00;106763;1255;1002651;-37
2023/09/25 09:59:52;;;;;;;;;4.33;4.00;;;;;-128.00;-1.00;-1.00;106749;1257;1002868;-38
2023/09/25 10:02:20;;;;;;;;;2.00;2.00;;;;;-128.00;-1.00;-1.00;106676;1255;1002558;-38
2023/09/25 10:04:47;;;;;;;;;4.00;4.00;;;;;-128.00;-1.00;-1.00;106650;1256;1002798;-38
2023/09/25 10:07:14;;;;;;;;;3.00;3.00;;;;;-128.00;-1.00;-1.00;106661;1256;1002788;-39
2023/09/25 10:09:42;;;;;;;;;4.00;4.00;;;;;-128.00;-1.00;-1.00;106730;1256;1003749;-38
2023/09/25 10:12:09;;;;;;;;;4.00;4.00;;;;;-128.00;-1.00;-1.00;106745;1250;1002615;-39
2023/09/25 10:14:36;;;;;;;;;3.50;3.50;;;;;-128.00;-1.00;-1.00;106723;1248;1004036;-38
2023/09/25 10:17:04;;;;;;;;;4.00;4.00;;;;;-128.00;-1.00;-1.00;106727;1256;1002808;-38
2023/09/25 10:19:31;;;;;;;;;4.00;4.00;;;;;-128.00;-1.00;-1.00;106741;1257;1003162;-38
2023/09/25 10:21:59;;;;;;;;;4.00;4.00;;;;;-128.00;-1.00;-1.00;106728;1256;1004107;-39
2023/09/25 10:24:26;;;;;;;;;2.00;2.00;;;;;-128.00;-1.00;-1.00;106733;1257;1002825;-38
2023/09/25 10:26:53;;;;;;;;;4.00;4.00;;;;;-128.00;-1.00;-1.00;106735;1255;1002760;-38
2023/09/25 10:29:22;;;;;;;;;4.00;4.00;;;;;-128.00;-1.00;-1.00;106738;1255;1002621;-39
2023/09/25 10:31:49;;;;;;;;;4.00;4.00;;;;;-128.00;-1.00;-1.00;106733;1257;1006984;-39
2023/09/25 10:34:17;;;;;;;;;5.00;5.00;;;;;-128.00;-1.00;-1.00;106719;1256;1005134;-39
2023/09/25 10:36:44;;;;;;;;;4.00;4.00;;;;;-128.00;-1.00;-1.00;106730;1255;1003100;-39
2023/09/25 10:39:13;;;;;;;;;5.00;4.00;;;;;-128.00;-1.00;-1.00;106766;1255;1002491;-38
2023/09/25 10:41:41;;;;;;;;;4.00;4.00;;;;;-128.00;-1.00;-1.00;106708;1257;1007004;-39
2023/09/25 10:44:09;;;;;;;;;4.00;4.00;;;;;-128.00;-1.00;-1.00;106703;1255;1002658;-37
2023/09/25 10:46:37;;;;;;;;;4.00;4.00;;;;;-128.00;-1.00;-1.00;106752;1255;1006898;-39
2023/09/25 10:49:04;;;;;;;;;7.00;5.00;;;;;-128.00;-1.00;-1.00;106728;1262;1002938;-39
2023/09/25 10:51:31;;;;;;;;;5.00;5.00;;;;;-128.00;-1.00;-1.00;106758;1256;1002713;-38
2023/09/25 10:53:59;;;;;;;;;4.00;4.00;;;;;-128.00;-1.00;-1.00;106725;1257;1002869;-39
2023/09/25 10:56:26;;;;;;;;;5.00;5.00;;;;;-128.00;-1.00;-1.00;106748;1263;1002793;-38
2023/09/25 10:58:53;;;;;;;;;5.50;4.75;;;;;-128.00;-1.00;-1.00;106763;1255;1003601;-38
2023/09/25 11:01:20;;;;;;;;;5.00;4.25;;;;;-128.00;-1.00;-1.00;106682;1257;1002133;-39
2023/09/25 11:03:48;;;;;;;;;4.50;4.50;;;;;-128.00;-1.00;-1.00;106681;1256;1002539;-39
2023/09/25 11:06:15;;;;;;;;;4.00;4.00;;;;;-128.00;-1.00;-1.00;106614;1255;1003661;-38
2023/09/25 11:08:42;;;;;;;;;3.50;3.50;;;;;-128.00;-1.00;-1.00;106684;1256;1002689;-39
2023/09/25 11:11:12;;;;;;;;;5.00;4.00;;;;;-128.00;-1.00;-1.00;106625;1256;1002361;-38
2023/09/25 11:13:40;;;;;;;;;4.00;4.00;;;;;-128.00;-1.00;-1.00;106716;1257;1006680;-39
2023/09/25 11:16:08;;;;;;;;;5.00;5.00;;;;;-128.00;-1.00;-1.00;106681;1257;1002449;-38
2023/09/25 11:18:36;;;;;;;;;5.00;4.50;;;;;-128.00;-1.00;-1.00;106698;1257;1005979;-38